Time;durP1;ratioP1;P1;durP2;ratioP2;P2;SDS_P1;SDS_P2;PMS_P1;PMS_P2;Temp;Humidity;BMP_temperature;BMP_pressure;BME280_temperature;BME280_humidity;BME280_pressure;Samples;Min_cycle;Max_cycle;Signal;HPM_P1;HPM_P2
2022/10/11 00:00:51;;;;;;;;;;;22.40;54.80;;;;;;1579367;74;789;-53
2022/10/11 00:02:53;;;;;;;;;;;22.40;54.80;;;;;;1575103;74;778;-55
2022/10/11 00:04:54;;;;;;;;;;;22.40;54.60;;;;;;1588312;74;1093;-55
2022/10/11 00:06:56;;;;;;;;;;;22.40;54.70;;;;;;1587670;74;1942;-53
2022/10/11 00:08:58;;;;;;;;;;;22.40;54.70;;;;;;1581568;74;790;-56
2022/10/11 00:11:01;;;;;;;;;;;22.40;54.70;;;;;;1583070;74;762;-57
2022/10/11 00:13:03;;;;;;;;;;;22.50;54.80;;;;;;1584568;74;748;-57
2022/10/11 00:15:05;;;;;;;;;;;22.40;54.60;;;;;;1595646;74;1266;-57
2022/10/11 00:17:07;;;;;;;;;;;22.50;54.70;;;;;;1591774;74;760;-56
2022/10/11 00:19:10;;;;;;;;;;;22.50;54.70;;;;;;1592487;74;839;-57
2022/10/11 00:21:12;;;;;;;;;;;22.50;54.70;;;;;;1585604;74;731;-57
2022/10/11 00:23:14;;;;;;;;;;;22.50;54.80;;;;;;1589930;74;793;-57
2022/10/11 00:25:16;;;;;;;;;;;22.50;54.70;;;;;;1586401;74;1081;-55
2022/10/11 00:27:18;;;;;;;;;;;22.50;54.80;;;;;;1588646;74;1945;-52
2022/10/11 00:29:20;;;;;;;;;;;22.50;54.80;;;;;;1581637;74;795;-52
2022/10/11 00:31:22;;;;;;;;;;;22.60;54.60;;;;;;1584843;74;741;-55
2022/10/11 00:33:24;;;;;;;;;;;22.60;54.70;;;;;;1580966;74;723;-55
2022/10/11 00:35:26;;;;;;;;;;;22.60;54.50;;;;;;1583709;74;1270;-55
2022/10/11 00:37:28;;;;;;;;;;;22.60;54.40;;;;;;1580880;74;705;-55
2022/10/11 00:39:30;;;;;;;;;;;22.60;54.40;;;;;;1583095;74;689;-55
2022/10/11 00:41:31;;;;;;;;;;;22.60;54.40;;;;;;1588671;74;694;-54
2022/10/11 00:43:33;;;;;;;;;;;22.60;54.40;;;;;;1581962;74;789;-51
2022/10/11 00:45:37;;;;;;;;;;;22.60;54.40;;;;;;1573820;74;1137;-55
2022/10/11 00:47:39;;;;;;;;;;;22.60;54.50;;;;;;1574456;74;1934;-55
2022/10/11 00:49:42;;;;;;;;;;;22.60;54.50;;;;;;1550589;76;785;-55
2022/10/11 00:51:46;;;;;;;;;;;22.60;54.40;;;;;;1574354;75;1747;-51
2022/10/11 00:53:48;;;;;;;;;;;22.60;54.50;;;;;;1552505;75;1685;-55
2022/10/11 00:55:51;;;;;;;;;;;22.60;54.50;;;;;;1569670;74;1573;-55
2022/10/11 00:57:53;;;;;;;;;;;22.60;54.70;;;;;;1572765;75;769;-54
2022/10/11 00:59:55;;;;;;;;;;;22.50;54.70;;;;;;1564965;75;777;-51
2022/10/11 01:01:56;;;;;;;;;;;22.50;54.80;;;;;;1568977;75;720;-54
2022/10/11 01:03:58;;;;;;;;;;;22.50;54.70;;;;;;1575694;75;794;-55
2022/10/11 01:06:02;;;;;;;;;;;22.50;54.70;;;;;;1564283;75;1140;-52
2022/10/11 01:08:04;;;;;;;;;;;22.50;54.70;;;;;;1568362;75;1904;-53
2022/10/11 01:10:06;;;;;;;;;;;22.50;54.70;;;;;;1572520;75;788;-52
2022/10/11 01:12:09;;;;;;;;;;;22.60;54.60;;;;;;1568827;75;778;-55
2022/10/11 01:14:18;;;;;;;;;;;22.50;54.60;;;;;;1569177;75;1911;-56
2022/10/11 01:16:22;;;;;;;;;;;22.50;54.60;;;;;;1572837;75;1149;-54
2022/10/11 01:18:28;;;;;;;;;;;22.50;54.60;;;;;;1577735;75;745;-56
2022/10/11 01:20:47;;;;;;;;;;;22.50;54.80;;;;;;1580654;75;714;-55
2022/10/11 01:23:08;;;;;;;;;;;22.50;54.80;;;;;;1576555;75;2295;-52
2022/10/11 01:25:18;;;;;;;;;;;22.40;54.70;;;;;;1568903;75;1152;-55
2022/10/11 01:27:40;;;;;;;;;;;22.40;54.80;;;;;;1577942;75;1938;-55
2022/10/11 01:29:46;;;;;;;;;;;22.40;54.90;;;;;;1580765;75;859;-54
2022/10/11 01:31:49;;;;;;;;;;;22.40;54.90;;;;;;1563845;75;722;-55
2022/10/11 01:33:56;;;;;;;;;;;22.40;55.00;;;;;;1567650;74;771;-55
2022/10/11 01:36:12;;;;;;;;;;;22.40;55.00;;;;;;1573230;74;1825;-52
2022/10/11 01:38:25;;;;;;;;;;;22.40;55.10;;;;;;1560566;74;959;-56
2022/10/11 01:40:31;;;;;;;;;;;22.20;55.00;;;;;;1569708;75;1960;-55
2022/10/11 01:42:33;;;;;;;;;;;22.30;55.20;;;;;;1574136;74;2153;-55
2022/10/11 01:44:36;;;;;;;;;;;22.20;55.00;;;;;;1567591;74;1086;-56
2022/10/11 01:46:38;;;;;;;;;;;22.30;55.20;;;;;;1559699;75;1913;-56
2022/10/11 01:48:49;;;;;;;;;;;22.20;55.10;;;;;;1548019;75;1103;-55
2022/10/11 01:50:53;;;;;;;;;;;22.30;55.20;;;;;;1542985;76;746;-55
2022/10/11 01:52:55;;;;;;;;;;;22.20;55.20;;;;;;1532731;75;777;-55
2022/10/11 01:54:58;;;;;;;;;;;22.30;55.30;;;;;;1549869;75;1201;-53
2022/10/11 01:57:02;;;;;;;;;;;22.20;55.20;;;;;;1539538;76;781;-55
2022/10/11 01:59:05;;;;;;;;;;;22.30;55.40;;;;;;1554797;75;1911;-52
2022/10/11 02:01:09;;;;;;;;;;;22.30;55.40;;;;;;1554821;76;1781;-55
2022/10/11 02:03:30;;;;;;;;;;;22.20;55.30;;;;;;1551439;76;694;-55
2022/10/11 02:05:37;;;;;;;;;;;22.30;55.40;;;;;;1523940;76;1127;-54
2022/10/11 02:07:46;;;;;;;;;;;22.20;55.40;;;;;;1547991;76;1943;-54
2022/10/11 02:10:05;;;;;;;;;;;22.10;55.40;;;;;;1551465;76;1477;-55
2022/10/11 02:12:09;;;;;;;;;;;22.20;55.60;;;;;;1534217;76;708;-52
2022/10/11 02:14:11;;;;;;;;;;;22.20;55.70;;;;;;1551817;76;739;-53
2022/10/11 02:16:14;;;;;;;;;;;22.30;55.70;;;;;;1529820;76;1140;-53
2022/10/11 02:18:17;;;;;;;;;;;22.30;55.80;;;;;;1554063;76;764;-55
2022/10/11 02:20:20;;;;;;;;;;;22.20;55.50;;;;;;1534287;76;766;-55
2022/10/11 02:22:29;;;;;;;;;;;22.30;55.60;;;;;;1536618;76;710;-56
2022/10/11 02:24:32;;;;;;;;;;;22.40;55.50;;;;;;1522951;76;723;-55
2022/10/11 02:26:34;;;;;;;;;;;22.40;55.40;;;;;;1536886;76;1130;-54
2022/10/11 02:28:36;;;;;;;;;;;22.40;55.40;;;;;;1529481;76;1935;-56
2022/10/11 02:30:38;;;;;;;;;;;22.40;55.40;;;;;;1540177;76;678;-52
2022/10/11 02:32:40;;;;;;;;;;;22.30;55.40;;;;;;1537247;76;756;-55
2022/10/11 02:34:46;;;;;;;;;;;22.40;55.30;;;;;;1550935;75;1155;-55
2022/10/11 02:37:07;;;;;;;;;;;22.40;55.30;;;;;;1544690;76;764;-56
2022/10/11 02:39:11;;;;;;;;;;;22.40;55.20;;;;;;1541071;76;830;-53
2022/10/11 02:41:15;;;;;;;;;;;22.40;55.20;;;;;;1543476;76;719;-55
2022/10/11 02:43:18;;;;;;;;;;;22.50;55.10;;;;;;1550790;75;1101;-55
2022/10/11 02:45:37;;;;;;;;;;;22.50;55.00;;;;;;1558559;75;1817;-56
2022/10/11 02:47:39;;;;;;;;;;;22.50;55.00;;;;;;1553680;75;1944;-56
2022/10/11 02:49:40;;;;;;;;;;;22.40;55.00;;;;;;1564796;74;1136;-57
2022/10/11 02:51:42;;;;;;;;;;;22.50;55.00;;;;;;1559544;75;756;-57
2022/10/11 02:53:44;;;;;;;;;;;22.40;55.20;;;;;;1565092;74;677;-58
2022/10/11 02:55:46;;;;;;;;;;;22.60;55.10;;;;;;1561528;75;1157;-58
2022/10/11 02:57:48;;;;;;;;;;;22.60;54.70;;;;;;1563149;75;775;-57
2022/10/11 02:59:50;;;;;;;;;;;22.70;54.60;;;;;;1577772;75;806;-58
2022/10/11 03:01:52;;;;;;;;;;;22.60;54.40;;;;;;1557222;74;734;-58
2022/10/11 03:03:54;;;;;;;;;;;22.60;54.40;;;;;;1568874;75;726;-57
2022/10/11 03:05:59;;;;;;;;;;;22.60;54.60;;;;;;1562175;75;1133;-58
2022/10/11 03:08:01;;;;;;;;;;;22.50;55.50;;;;;;1570875;75;1949;-57
2022/10/11 03:10:03;;;;;;;;;;;22.50;55.30;;;;;;1574554;75;802;-57
2022/10/11 03:12:05;;;;;;;;;;;22.60;55.00;;;;;;1563806;75;736;-54
2022/10/11 03:14:07;;;;;;;;;;;22.60;54.90;;;;;;1571082;75;755;-52
2022/10/11 03:16:09;;;;;;;;;;;22.70;55.00;;;;;;1576019;75;1112;-55
2022/10/11 03:18:11;;;;;;;;;;;22.60;55.20;;;;;;1574869;74;755;-55
2022/10/11 03:20:13;;;;;;;;;;;22.40;55.40;;;;;;1577357;75;776;-55
2022/10/11 03:22:15;;;;;;;;;;;22.50;55.40;;;;;;1572332;75;719;-55
2022/10/11 03:24:17;;;;;;;;;;;22.60;55.40;;;;;;1571511;75;787;-55
2022/10/11 03:26:19;;;;;;;;;;;22.70;55.20;;;;;;1575671;75;1124;-53
2022/10/11 03:28:20;;;;;;;;;;;22.70;54.90;;;;;;1563239;75;1935;-52
2022/10/11 03:30:22;;;;;;;;;;;22.80;55.00;;;;;;1577240;75;810;-55
2022/10/11 03:32:24;;;;;;;;;;;22.70;55.10;;;;;;1572652;75;800;-55
2022/10/11 03:34:26;;;;;;;;;;;22.80;55.00;;;;;;1572569;75;767;-56
2022/10/11 03:36:28;;;;;;;;;;;22.80;55.00;;;;;;1574090;75;1105;-56
2022/10/11 03:38:30;;;;;;;;;;;22.80;55.00;;;;;;1578183;75;780;-55
2022/10/11 03:40:32;;;;;;;;;;;22.80;55.10;;;;;;1572930;75;733;-55
2022/10/11 03:42:34;;;;;;;;;;;22.70;55.30;;;;;;1571307;74;740;-52
2022/10/11 03:44:37;;;;;;;;;;;22.60;55.50;;;;;;1572119;75;1092;-51
2022/10/11 03:46:39;;;;;;;;;;;22.70;55.50;;;;;;1570039;75;673;-53
2022/10/11 03:48:41;;;;;;;;;;;22.70;55.70;;;;;;1568146;75;1927;-55
2022/10/11 03:50:43;;;;;;;;;;;22.60;55.70;;;;;;1572402;75;618;-55
2022/10/11 03:52:45;;;;;;;;;;;22.60;55.80;;;;;;1571718;75;749;-52
2022/10/11 03:54:46;;;;;;;;;;;22.60;55.90;;;;;;1572053;74;1115;-55
2022/10/11 03:56:48;;;;;;;;;;;22.50;56.00;;;;;;1570925;75;740;-56
2022/10/11 03:58:50;;;;;;;;;;;22.50;56.00;;;;;;1571151;75;746;-57
2022/10/11 04:00:52;;;;;;;;;;;22.50;56.40;;;;;;1573954;75;745;-57
2022/10/11 04:02:54;;;;;;;;;;;22.40;56.30;;;;;;1573462;75;751;-59
2022/10/11 04:04:56;;;;;;;;;;;22.50;56.40;;;;;;1578103;75;1107;-59
2022/10/11 04:06:58;;;;;;;;;;;22.50;56.40;;;;;;1567968;75;713;-59
2022/10/11 04:09:00;;;;;;;;;;;22.60;56.20;;;;;;1570477;75;1946;-59
2022/10/11 04:11:02;;;;;;;;;;;22.60;55.90;;;;;;1571685;75;778;-58
2022/10/11 04:13:04;;;;;;;;;;;22.60;55.90;;;;;;1572202;75;728;-59
2022/10/11 04:15:06;;;;;;;;;;;22.70;55.80;;;;;;1571283;75;1117;-58
2022/10/11 04:17:08;;;;;;;;;;;22.70;55.80;;;;;;1571906;75;832;-59
2022/10/11 04:19:10;;;;;;;;;;;22.80;55.60;;;;;;1574069;74;779;-59
2022/10/11 04:21:14;;;;;;;;;;;22.80;55.40;;;;;;1572118;75;777;-57
2022/10/11 04:23:16;;;;;;;;;;;22.90;55.40;;;;;;1569820;75;974;-59
2022/10/11 04:25:18;;;;;;;;;;;22.90;55.30;;;;;;1571239;75;1169;-58
2022/10/11 04:27:20;;;;;;;;;;;22.90;55.30;;;;;;1572643;75;744;-59
2022/10/11 04:29:22;;;;;;;;;;;22.90;55.20;;;;;;1566468;75;1950;-59
2022/10/11 04:31:23;;;;;;;;;;;22.90;55.20;;;;;;1571649;75;786;-58
2022/10/11 04:33:25;;;;;;;;;;;22.90;55.10;;;;;;1571967;75;778;-58
2022/10/11 04:35:27;;;;;;;;;;;22.90;55.00;;;;;;1575776;75;1140;-57
2022/10/11 04:37:29;;;;;;;;;;;22.90;55.00;;;;;;1570061;75;726;-59
2022/10/11 04:39:31;;;;;;;;;;;22.90;54.90;;;;;;1574169;75;786;-59
2022/10/11 04:41:33;;;;;;;;;;;22.90;54.70;;;;;;1572128;75;769;-58
2022/10/11 04:43:35;;;;;;;;;;;22.90;54.90;;;;;;1570069;75;799;-58
2022/10/11 04:45:37;;;;;;;;;;;22.80;54.90;;;;;;1574944;75;1141;-57
2022/10/11 04:47:39;;;;;;;;;;;22.80;55.20;;;;;;1572681;75;1944;-58
2022/10/11 04:49:41;;;;;;;;;;;22.80;55.20;;;;;;1568870;75;1131;-58
2022/10/11 04:51:43;;;;;;;;;;;22.70;55.00;;;;;;1577225;75;731;-59
2022/10/11 04:53:45;;;;;;;;;;;22.80;55.00;;;;;;1572430;75;774;-59
2022/10/11 04:55:57;;;;;;;;;;;22.90;55.20;;;;;;1578931;75;1177;-58
2022/10/11 04:58:00;;;;;;;;;;;22.80;54.90;;;;;;1569804;75;684;-58
2022/10/11 05:00:04;;;;;;;;;;;22.90;55.10;;;;;;1567318;75;814;-59
2022/10/11 05:02:06;;;;;;;;;;;22.80;55.00;;;;;;1571252;75;752;-59
2022/10/11 05:04:07;;;;;;;;;;;22.90;55.10;;;;;;1569073;75;733;-59
2022/10/11 05:06:09;;;;;;;;;;;22.80;55.70;;;;;;1565264;75;1109;-57
2022/10/11 05:08:11;;;;;;;;;;;22.70;56.00;;;;;;1561029;75;1939;-59
2022/10/11 05:10:13;;;;;;;;;;;22.60;56.00;;;;;;1571839;75;756;-59
2022/10/11 05:12:15;;;;;;;;;;;22.60;56.00;;;;;;1570677;75;598;-59
2022/10/11 05:14:17;;;;;;;;;;;22.60;55.80;;;;;;1566037;75;651;-58
2022/10/11 05:16:19;;;;;;;;;;;22.60;55.60;;;;;;1574794;75;1092;-59
2022/10/11 05:18:21;;;;;;;;;;;22.80;55.30;;;;;;1579159;75;748;-59
2022/10/11 05:20:23;;;;;;;;;;;22.70;55.20;;;;;;1573689;75;791;-59
2022/10/11 05:22:25;;;;;;;;;;;22.80;54.90;;;;;;1563440;75;821;-59
2022/10/11 05:24:26;;;;;;;;;;;22.80;54.80;;;;;;1568560;75;731;-59
2022/10/11 05:26:28;;;;;;;;;;;22.90;54.80;;;;;;1562479;75;1116;-55
2022/10/11 05:28:30;;;;;;;;;;;22.90;54.70;;;;;;1568392;75;1931;-59
2022/10/11 05:30:32;;;;;;;;;;;22.80;54.60;;;;;;1565000;75;771;-59
2022/10/11 05:32:34;;;;;;;;;;;22.80;54.60;;;;;;1564831;75;765;-59
2022/10/11 05:34:36;;;;;;;;;;;22.90;54.60;;;;;;1560810;75;1152;-59
2022/10/11 05:36:38;;;;;;;;;;;22.90;54.60;;;;;;1572956;75;573;-58
2022/10/11 05:38:40;;;;;;;;;;;22.80;55.20;;;;;;1575055;75;787;-58
2022/10/11 05:40:41;;;;;;;;;;;22.60;55.00;;;;;;1576267;75;712;-59
2022/10/11 05:42:43;;;;;;;;;;;22.60;55.20;;;;;;1561581;75;650;-59
2022/10/11 05:44:45;;;;;;;;;;;22.50;55.70;;;;;;1567023;75;1123;-59
2022/10/11 05:46:47;;;;;;;;;;;22.50;55.90;;;;;;1573350;75;851;-58
2022/10/11 05:48:49;;;;;;;;;;;22.50;56.00;;;;;;1571342;75;1942;-59
2022/10/11 05:50:51;;;;;;;;;;;22.50;56.00;;;;;;1572054;75;1052;-58
2022/10/11 05:52:53;;;;;;;;;;;22.50;55.80;;;;;;1576737;74;696;-59
2022/10/11 05:54:55;;;;;;;;;;;22.70;55.40;;;;;;1578267;74;1169;-58
2022/10/11 05:56:56;;;;;;;;;;;22.80;55.00;;;;;;1573614;75;678;-59
2022/10/11 05:58:58;;;;;;;;;;;22.90;54.80;;;;;;1574996;75;783;-59
2022/10/11 06:01:00;;;;;;;;;;;22.90;54.50;;;;;;1574665;75;742;-59
2022/10/11 06:03:02;;;;;;;;;;;23.00;54.40;;;;;;1569807;75;825;-57
2022/10/11 06:05:04;;;;;;;;;;;23.00;54.30;;;;;;1571350;75;1071;-59
2022/10/11 06:07:06;;;;;;;;;;;22.90;54.30;;;;;;1571409;75;780;-58
2022/10/11 06:09:08;;;;;;;;;;;22.90;54.40;;;;;;1571336;75;1920;-58
2022/10/11 06:11:10;;;;;;;;;;;22.80;54.40;;;;;;1564196;75;683;-58
2022/10/11 06:13:12;;;;;;;;;;;22.80;54.40;;;;;;1576110;75;787;-61
2022/10/11 06:15:14;;;;;;;;;;;22.80;54.50;;;;;;1575151;75;1099;-58
2022/10/11 06:17:16;;;;;;;;;;;22.70;54.50;;;;;;1570230;75;742;-59
2022/10/11 06:19:18;;;;;;;;;;;22.70;54.60;;;;;;1575883;75;797;-58
2022/10/11 06:21:20;;;;;;;;;;;22.70;54.60;;;;;;1572550;75;806;-59
2022/10/11 06:23:22;;;;;;;;;;;22.70;54.70;;;;;;1569876;75;751;-58
2022/10/11 06:25:24;;;;;;;;;;;22.70;54.60;;;;;;1572721;75;1177;-57
2022/10/11 06:27:26;;;;;;;;;;;22.70;54.70;;;;;;1567155;75;750;-59
2022/10/11 06:29:28;;;;;;;;;;;22.70;54.70;;;;;;1570983;75;1915;-58
2022/10/11 06:31:30;;;;;;;;;;;22.70;54.70;;;;;;1568416;75;789;-59
2022/10/11 06:33:32;;;;;;;;;;;22.60;54.60;;;;;;1570887;75;713;-59
2022/10/11 06:35:33;;;;;;;;;;;22.60;54.60;;;;;;1567915;75;1157;-58
2022/10/11 06:37:35;;;;;;;;;;;22.70;54.70;;;;;;1572922;75;720;-59
2022/10/11 06:39:37;;;;;;;;;;;22.60;54.60;;;;;;1573525;75;792;-58
2022/10/11 06:41:39;;;;;;;;;;;22.70;54.60;;;;;;1574748;75;775;-59
2022/10/11 06:43:41;;;;;;;;;;;22.70;54.60;;;;;;1574097;74;755;-59
2022/10/11 06:45:43;;;;;;;;;;;22.70;54.50;;;;;;1573986;75;1138;-58
2022/10/11 06:47:45;;;;;;;;;;;22.60;54.40;;;;;;1573591;75;864;-59
2022/10/11 06:49:47;;;;;;;;;;;22.60;54.50;;;;;;1568331;75;1930;-59
2022/10/11 06:51:49;;;;;;;;;;;22.60;54.40;;;;;;1579466;74;1049;-58
2022/10/11 06:53:54;;;;;;;;;;;22.70;54.50;;;;;;1576821;74;722;-59
2022/10/11 06:55:57;;;;;;;;;;;22.70;54.50;;;;;;1573584;74;1171;-57
2022/10/11 06:57:59;;;;;;;;;;;22.70;54.50;;;;;;1585753;74;1833;-58
2022/10/11 07:00:01;;;;;;;;;;;22.70;54.50;;;;;;1577402;75;705;-59
2022/10/11 07:02:03;;;;;;;;;;;22.70;54.50;;;;;;1575330;74;723;-59
2022/10/11 07:04:05;;;;;;;;;;;22.70;54.30;;;;;;1579067;75;734;-57
2022/10/11 07:06:07;;;;;;;;;;;22.70;54.40;;;;;;1585354;74;1108;-59
2022/10/11 07:08:09;;;;;;;;;;;22.80;54.30;;;;;;1578951;74;780;-58
2022/10/11 07:10:11;;;;;;;;;;;22.70;54.30;;;;;;1568067;74;1945;-57
2022/10/11 07:12:13;;;;;;;;;;;22.70;54.30;;;;;;1562690;74;710;-59
2022/10/11 07:14:15;;;;;;;;;;;22.80;54.20;;;;;;1566811;74;725;-59
2022/10/11 07:16:17;;;;;;;;;;;22.70;54.20;;;;;;1586089;74;1105;-59
2022/10/11 07:18:19;;;;;;;;;;;22.70;54.20;;;;;;1586695;75;783;-59
2022/10/11 07:20:21;;;;;;;;;;;22.70;54.20;;;;;;1583933;74;778;-59
2022/10/11 07:22:22;;;;;;;;;;;22.80;54.10;;;;;;1583723;75;733;-59
2022/10/11 07:24:24;;;;;;;;;;;22.70;54.10;;;;;;1572957;74;737;-59
2022/10/11 07:26:26;;;;;;;;;;;22.80;54.20;;;;;;1577099;75;1118;-58
2022/10/11 07:28:29;;;;;;;;;;;22.80;54.10;;;;;;1562986;74;729;-56
2022/10/11 07:30:31;;;;;;;;;;;22.80;54.00;;;;;;1567128;74;1909;-56
2022/10/11 07:32:33;;;;;;;;;;;22.80;54.00;;;;;;1572819;74;715;-56
2022/10/11 07:34:34;;;;;;;;;;;22.80;54.00;;;;;;1577603;74;760;-58
2022/10/11 07:36:36;;;;;;;;;;;22.80;53.90;;;;;;1583468;75;735;-59
2022/10/11 07:38:39;;;;;;;;;;;22.80;53.90;;;;;;1579874;74;732;-56
2022/10/11 07:40:42;;;;;;;;;;;22.80;53.90;;;;;;1572765;74;801;-56
2022/10/11 07:42:44;;;;;;;;;;;22.80;53.90;;;;;;1583946;74;766;-56
2022/10/11 07:44:46;;;;;;;;;;;22.80;53.80;;;;;;1588094;73;1322;-57
2022/10/11 07:46:47;;;;;;;;;;;22.80;53.70;;;;;;1579358;74;736;-57
2022/10/11 07:48:49;;;;;;;;;;;22.90;53.90;;;;;;1584475;74;1933;-58
2022/10/11 07:50:51;;;;;;;;;;;22.80;53.80;;;;;;1582747;74;1029;-59
2022/10/11 07:52:53;;;;;;;;;;;22.80;53.70;;;;;;1578180;74;721;-58
2022/10/11 07:54:55;;;;;;;;;;;22.90;53.90;;;;;;1573305;74;1094;-57
2022/10/11 07:56:57;;;;;;;;;;;22.80;53.80;;;;;;1572087;74;1427;-59
2022/10/11 07:59:00;;;;;;;;;;;22.80;53.80;;;;;;1568032;74;732;-57
2022/10/11 08:01:02;;;;;;;;;;;22.80;53.70;;;;;;1584504;74;699;-58
2022/10/11 08:03:04;;;;;;;;;;;22.90;53.90;;;;;;1570471;74;782;-58
2022/10/11 08:05:06;;;;;;;;;;;22.80;53.80;;;;;;1582429;75;1142;-58
2022/10/11 08:07:08;;;;;;;;;;;22.90;53.90;;;;;;1568866;75;718;-58
2022/10/11 08:09:11;;;;;;;;;;;22.90;53.90;;;;;;1579211;75;1926;-57
2022/10/11 08:11:20;;;;;;;;;;;22.70;53.80;;;;;;1564833;74;1564;-59
2022/10/11 08:13:22;;;;;;;;;;;22.80;53.90;;;;;;1571006;74;1798;-58
2022/10/11 08:15:24;;;;;;;;;;;22.80;53.90;;;;;;1569460;74;1160;-59
2022/10/11 08:17:26;;;;;;;;;;;22.70;53.90;;;;;;1578155;74;781;-59
2022/10/11 08:19:28;;;;;;;;;;;22.80;53.90;;;;;;1583283;74;740;-59
2022/10/11 08:21:29;;;;;;;;;;;22.70;53.90;;;;;;1581106;74;718;-58
2022/10/11 08:23:31;;;;;;;;;;;22.70;53.90;;;;;;1574437;74;693;-59
2022/10/11 08:25:37;;;;;;;;;;;22.80;53.80;;;;;;1579197;74;1329;-59
2022/10/11 08:27:39;;;;;;;;;;;22.70;53.90;;;;;;1579111;75;685;-58
2022/10/11 08:29:41;;;;;;;;;;;22.70;53.90;;;;;;1581563;74;1937;-58
2022/10/11 08:31:43;;;;;;;;;;;22.70;53.90;;;;;;1571934;74;712;-59
2022/10/11 08:33:45;;;;;;;;;;;22.80;53.90;;;;;;1581942;74;779;-58
2022/10/11 08:35:47;;;;;;;;;;;22.70;54.00;;;;;;1580143;74;1135;-55
2022/10/11 08:37:49;;;;;;;;;;;22.70;54.00;;;;;;1564058;74;638;-56
2022/10/11 08:39:51;;;;;;;;;;;22.70;54.00;;;;;;1574778;74;1599;-52
2022/10/11 08:41:53;;;;;;;;;;;22.70;54.10;;;;;;1581336;74;749;-57
2022/10/11 08:43:57;;;;;;;;;;;22.60;54.00;;;;;;1575261;74;812;-55
2022/10/11 08:46:00;;;;;;;;;;;22.60;54.10;;;;;;1580750;74;1040;-58
2022/10/11 08:48:03;;;;;;;;;;;22.70;54.20;;;;;;1571745;75;701;-54
2022/10/11 08:50:06;;;;;;;;;;;22.60;54.10;;;;;;1574254;75;1939;-57
2022/10/11 08:52:15;;;;;;;;;;;22.70;54.20;;;;;;1571208;75;1072;-55
2022/10/11 08:54:21;;;;;;;;;;;22.60;54.20;;;;;;1547405;75;2104;-57
2022/10/11 08:56:23;;;;;;;;;;;22.60;54.20;;;;;;1564630;75;1136;-57
2022/10/11 08:58:27;;;;;;;;;;;22.60;54.20;;;;;;1561506;75;715;-57
2022/10/11 09:00:30;;;;;;;;;;;22.60;54.10;;;;;;1568830;75;2164;-56
2022/10/11 09:02:33;;;;;;;;;;;22.70;54.20;;;;;;1578041;75;734;-57
2022/10/11 09:04:35;;;;;;;;;;;22.60;54.00;;;;;;1568006;75;1156;-57
2022/10/11 09:06:42;;;;;;;;;;;22.60;53.90;;;;;;1575272;75;670;-52
2022/10/11 09:08:51;;;;;;;;;;;22.70;54.00;;;;;;1556158;75;1499;-57
2022/10/11 09:11:11;;;;;;;;;;;22.70;54.10;;;;;;1554358;75;1934;-53
2022/10/11 09:13:30;;;;;;;;;;;22.60;54.00;;;;;;1561026;75;704;-57
2022/10/11 09:15:49;;;;;;;;;;;22.60;53.90;;;;;;1569498;75;1148;-57
2022/10/11 09:18:01;;;;;;;;;;;22.60;54.00;;;;;;1571495;75;726;-55
2022/10/11 09:20:13;;;;;;;;;;;22.60;54.10;;;;;;1571277;75;1919;-58
2022/10/11 09:22:29;;;;;;;;;;;22.50;54.20;;;;;;1578236;74;1535;-57
2022/10/11 09:24:36;;;;;;;;;;;22.50;54.20;;;;;;1572328;75;756;-57
2022/10/11 09:26:58;;;;;;;;;;;22.60;54.10;;;;;;1568404;75;698;-57
2022/10/11 09:29:18;;;;;;;;;;;22.60;54.10;;;;;;1573431;75;760;-57
2022/10/11 09:31:21;;;;;;;;;;;22.60;54.10;;;;;;1564041;75;730;-57
2022/10/11 09:33:33;;;;;;;;;;;22.60;54.10;;;;;;1575414;75;721;-54
2022/10/11 09:35:36;;;;;;;;;;;22.50;54.10;;;;;;1564641;75;1615;-57
2022/10/11 09:37:40;;;;;;;;;;;22.60;54.00;;;;;;1576270;75;751;-57
2022/10/11 09:39:44;;;;;;;;;;;22.60;54.00;;;;;;1550656;75;1686;-54
2022/10/11 09:41:47;;;;;;;;;;;22.60;54.00;;;;;;1570363;75;722;-55
2022/10/11 09:43:49;;;;;;;;;;;22.60;53.90;;;;;;1573056;75;1381;-57
2022/10/11 09:45:51;;;;;;;;;;;22.60;53.90;;;;;;1561450;75;1141;-57
2022/10/11 09:47:53;;;;;;;;;;;22.60;53.90;;;;;;1572615;75;781;-56
2022/10/11 09:50:05;;;;;;;;;;;22.60;53.80;;;;;;1572036;75;1914;-58
2022/10/11 09:52:08;;;;;;;;;;;22.60;53.90;;;;;;1571806;75;1067;-57
2022/10/11 09:54:10;;;;;;;;;;;22.60;53.90;;;;;;1569418;74;1908;-57
2022/10/11 09:56:12;;;;;;;;;;;22.60;53.80;;;;;;1565994;75;1172;-58
2022/10/11 09:58:27;;;;;;;;;;;22.60;53.60;;;;;;1569838;75;781;-58
2022/10/11 10:00:32;;;;;;;;;;;22.70;53.60;;;;;;1568038;75;743;-57
2022/10/11 10:02:47;;;;;;;;;;;22.70;53.60;;;;;;1572543;75;2020;-57
2022/10/11 10:04:57;;;;;;;;;;;22.70;53.60;;;;;;1571847;75;1539;-58
2022/10/11 10:07:12;;;;;;;;;;;22.70;53.50;;;;;;1573204;75;829;-57
2022/10/11 10:09:27;;;;;;;;;;;22.70;53.50;;;;;;1579523;75;966;-56
2022/10/11 10:11:29;;;;;;;;;;;22.70;53.40;;;;;;1568203;75;1892;-57
2022/10/11 10:13:45;;;;;;;;;;;22.80;53.50;;;;;;1550861;76;1249;-57
2022/10/11 10:15:47;;;;;;;;;;;22.80;53.40;;;;;;1571369;75;1140;-57
2022/10/11 10:17:49;;;;;;;;;;;22.80;53.40;;;;;;1567465;74;1513;-58
2022/10/11 10:19:52;;;;;;;;;;;22.70;53.40;;;;;;1574902;75;867;-57
2022/10/11 10:21:54;;;;;;;;;;;22.80;53.30;;;;;;1575537;75;753;-58
2022/10/11 10:23:58;;;;;;;;;;;22.70;53.30;;;;;;1570219;75;722;-59
2022/10/11 10:26:19;;;;;;;;;;;22.70;53.20;;;;;;1566942;74;1175;-57
2022/10/11 10:28:22;;;;;;;;;;;22.80;53.30;;;;;;1563103;75;767;-58
2022/10/11 10:30:24;;;;;;;;;;;22.70;53.20;;;;;;1568110;75;1922;-57
2022/10/11 10:32:27;;;;;;;;;;;22.70;53.20;;;;;;1570468;75;1563;-54
2022/10/11 10:34:35;;;;;;;;;;;22.70;53.20;;;;;;1572419;75;718;-58
2022/10/11 10:36:38;;;;;;;;;;;22.90;53.40;;;;;;1572176;75;775;-54
2022/10/11 10:38:44;;;;;;;;;;;22.80;53.20;;;;;;1569676;75;744;-54
2022/10/11 10:40:50;;;;;;;;;;;22.80;53.20;;;;;;1572106;75;1904;-54
2022/10/11 10:42:52;;;;;;;;;;;22.80;53.20;;;;;;1574334;75;763;-54
2022/10/11 10:44:56;;;;;;;;;;;22.70;53.20;;;;;;1567167;75;1133;-58
2022/10/11 10:47:00;;;;;;;;;;;22.80;53.20;;;;;;1565455;75;1551;-57
2022/10/11 10:49:15;;;;;;;;;;;22.70;53.30;;;;;;1570294;75;1801;-57
2022/10/11 10:51:22;;;;;;;;;;;22.70;53.30;;;;;;1563365;75;1953;-55
2022/10/11 10:53:25;;;;;;;;;;;22.70;53.30;;;;;;1573762;74;1091;-58
2022/10/11 10:55:43;;;;;;;;;;;22.80;53.30;;;;;;1582918;74;1865;-55
2022/10/11 10:58:03;;;;;;;;;;;22.80;53.30;;;;;;1581600;74;858;-54
2022/10/11 11:00:12;;;;;;;;;;;22.80;53.20;;;;;;1586117;74;1521;-56
2022/10/11 11:02:16;;;;;;;;;;;22.80;53.10;;;;;;1580309;74;796;-56
2022/10/11 11:04:30;;;;;;;;;;;22.80;53.10;;;;;;1576315;74;788;-58
2022/10/11 11:06:49;;;;;;;;;;;22.90;53.30;;;;;;1579224;74;1086;-56
2022/10/11 11:08:53;;;;;;;;;;;22.90;53.40;;;;;;1570940;74;1828;-58
2022/10/11 11:11:08;;;;;;;;;;;22.80;53.20;;;;;;1578422;74;1941;-58
2022/10/11 11:13:27;;;;;;;;;;;22.90;53.30;;;;;;1575394;74;1891;-58
2022/10/11 11:15:46;;;;;;;;;;;22.90;53.20;;;;;;1571597;74;1574;-58
2022/10/11 11:18:06;;;;;;;;;;;22.80;53.20;;;;;;1586166;74;1906;-59
2022/10/11 11:20:26;;;;;;;;;;;22.80;53.10;;;;;;1579851;74;795;-58
2022/10/11 11:22:29;;;;;;;;;;;22.90;53.20;;;;;;1567828;74;774;-58
2022/10/11 11:24:33;;;;;;;;;;;22.90;53.20;;;;;;1570388;74;1798;-58
2022/10/11 11:26:36;;;;;;;;;;;22.90;53.20;;;;;;1584942;74;1064;-58
2022/10/11 11:28:57;;;;;;;;;;;22.90;53.10;;;;;;1581973;74;1980;-58
2022/10/11 11:31:00;;;;;;;;;;;22.90;53.10;;;;;;1579426;74;1939;-58
2022/10/11 11:33:19;;;;;;;;;;;22.90;53.10;;;;;;1571504;74;1914;-54
2022/10/11 11:35:28;;;;;;;;;;;22.90;53.10;;;;;;1574549;74;1183;-58
2022/10/11 11:37:31;;;;;;;;;;;22.90;53.10;;;;;;1580469;74;1853;-59
2022/10/11 11:39:44;;;;;;;;;;;22.90;53.10;;;;;;1583360;74;709;-58
2022/10/11 11:41:51;;;;;;;;;;;22.90;53.10;;;;;;1578556;74;732;-58
2022/10/11 11:43:57;;;;;;;;;;;22.90;53.10;;;;;;1582381;74;1705;-55
2022/10/11 11:46:01;;;;;;;;;;;22.90;53.10;;;;;;1579284;74;1128;-54
2022/10/11 11:48:04;;;;;;;;;;;22.90;53.10;;;;;;1577275;74;1380;-58
2022/10/11 11:50:17;;;;;;;;;;;22.90;53.00;;;;;;1581969;74;1945;-57
2022/10/11 11:52:19;;;;;;;;;;;22.90;53.00;;;;;;1585440;74;1617;-57
2022/10/11 11:54:27;;;;;;;;;;;22.90;53.10;;;;;;1575210;74;1845;-56
2022/10/11 11:56:46;;;;;;;;;;;22.90;52.80;;;;;;1586941;74;1329;-56
2022/10/11 11:59:01;;;;;;;;;;;23.00;52.80;;;;;;1576602;74;799;-55
2022/10/11 12:01:13;;;;;;;;;;;22.90;52.90;;;;;;1574211;75;1447;-56
2022/10/11 12:03:17;;;;;;;;;;;23.00;52.80;;;;;;1577048;74;1746;-57
2022/10/11 12:05:20;;;;;;;;;;;23.00;52.90;;;;;;1572249;74;1080;-53
2022/10/11 12:07:23;;;;;;;;;;;23.00;52.90;;;;;;1563494;74;774;-57
2022/10/11 12:09:26;;;;;;;;;;;22.90;52.80;;;;;;1568878;75;764;-52
2022/10/11 12:11:30;;;;;;;;;;;23.00;52.90;;;;;;1575931;74;1947;-57
2022/10/11 12:13:36;;;;;;;;;;;23.00;52.80;;;;;;1567381;74;776;-57
2022/10/11 12:15:38;;;;;;;;;;;22.90;52.90;;;;;;1580113;75;1155;-57
2022/10/11 12:17:57;;;;;;;;;;;23.00;52.90;;;;;;1576331;74;721;-56
2022/10/11 12:20:09;;;;;;;;;;;22.90;52.90;;;;;;1574897;74;717;-57
2022/10/11 12:22:18;;;;;;;;;;;23.00;52.80;;;;;;1570979;75;772;-57